createdAt,value
2023-01-18T00:37:11.023Z,42.80
2023-01-18T00:38:13.332Z,34.50
2023-01-18T00:39:15.805Z,37.40
2023-01-18T00:40:19.962Z,41.90
2023-01-18T00:41:22.846Z,42.90
2023-01-18T00:42:43.540Z,42.73
2023-01-18T00:43:46.573Z,39.50
2023-01-18T00:44:49.232Z,36.55
2023-01-18T00:45:51.539Z,35.20
2023-01-18T00:46:55.515Z,33.00
2023-01-18T00:47:57.768Z,29.30
2023-01-18T00:49:00.673Z,32.40
2023-01-18T00:50:03.275Z,29.82
2023-01-18T00:51:07.008Z,32.70
2023-01-18T00:52:09.203Z,30.20
2023-01-18T00:53:11.272Z,31.44
2023-01-18T00:54:13.292Z,32.60
2023-01-18T00:55:16.843Z,26.11
2023-01-18T00:56:21.573Z,30.30
2023-01-18T00:57:24.201Z,27.80
2023-01-18T00:58:28.113Z,29.70
2023-01-18T00:59:30.478Z,26.10
2023-01-18T01:00:32.892Z,27.00
2023-01-18T01:01:35.830Z,27.60
2023-01-18T01:02:42.015Z,26.40
2023-01-18T01:04:03.010Z,27.80
2023-01-18T01:05:24.155Z,29.60
2023-01-18T01:06:45.759Z,29.90
2023-01-18T01:07:49.034Z,17.30
2023-01-18T01:08:51.109Z,28.73
2023-01-18T01:09:53.108Z,27.60
2023-01-18T01:11:10.706Z,26.30
2023-01-18T01:12:31.808Z,23.50
2023-01-18T01:13:53.203Z,26.00
2023-01-18T01:15:14.537Z,23.00
2023-01-18T01:16:35.794Z,25.20
2023-01-18T01:17:57.384Z,24.60
2023-01-18T01:19:17.637Z,26.00
2023-01-18T01:20:39.661Z,26.70
2023-01-18T01:22:00.723Z,24.90
2023-01-18T01:23:40.907Z,23.60
2023-01-18T01:25:01.776Z,24.30
2023-01-18T01:26:12.642Z,23.30
2023-01-18T01:27:15.328Z,24.60
2023-01-18T01:28:17.721Z,24.55
2023-01-18T01:29:19.744Z,25.30
2023-01-18T01:30:22.489Z,24.80
2023-01-18T01:31:24.697Z,24.64
2023-01-18T01:32:27.017Z,24.50
2023-01-18T01:33:30.337Z,21.56
2023-01-18T01:34:32.896Z,23.50
2023-01-18T01:35:35.409Z,23.20
2023-01-18T01:36:38.165Z,23.50
2023-01-18T01:37:40.418Z,23.70
2023-01-18T01:38:42.934Z,21.90
2023-01-18T01:39:44.874Z,22.60
2023-01-18T01:40:55.560Z,20.90
2023-01-18T01:41:58.991Z,23.30
2023-01-18T01:43:01.452Z,20.50
2023-01-18T01:44:19.496Z,25.40
2023-01-18T01:45:25.244Z,23.80
2023-01-18T01:46:52.389Z,24.10
2023-01-18T01:47:57.034Z,20.90
2023-01-18T01:49:21.055Z,25.00
2023-01-18T01:50:29.744Z,24.50
2023-01-18T01:51:34.854Z,24.80
2023-01-18T01:52:40.661Z,25.80
2023-01-18T01:53:43.009Z,23.70
2023-01-18T01:54:51.785Z,23.90
2023-01-18T01:55:56.006Z,22.80
2023-01-18T01:57:03.929Z,23.40
2023-01-18T01:58:12.617Z,18.50
2023-01-18T01:59:16.204Z,24.20
2023-01-18T02:00:23.222Z,26.40
2023-01-18T02:01:28.124Z,25.10
2023-01-18T02:02:33.576Z,24.50
2023-01-18T02:03:39.410Z,21.70
2023-01-18T02:04:43.741Z,20.50
2023-01-18T02:05:52.389Z,26.60
2023-01-18T02:06:54.679Z,25.70
2023-01-18T02:08:02.789Z,22.56
2023-01-18T02:09:11.459Z,26.60
2023-01-18T02:10:15.099Z,22.50
2023-01-18T02:11:17.216Z,22.00
2023-01-18T02:12:19.853Z,22.40
2023-01-18T02:13:25.477Z,22.70
2023-01-18T02:14:27.768Z,23.20
2023-01-18T02:17:05.682Z,19.70
2023-01-18T02:18:17.027Z,20.00
2023-01-18T02:19:44.672Z,19.90
2023-01-18T02:21:16.761Z,23.10
2023-01-18T02:22:56.754Z,22.60
2023-01-18T02:24:21.149Z,24.00
2023-01-18T02:25:51.539Z,22.30
2023-01-18T02:27:00.712Z,21.90
2023-01-18T02:28:09.505Z,21.00
2023-01-18T02:29:17.477Z,23.10
2023-01-18T02:30:23.505Z,23.80
2023-01-18T02:31:28.684Z,24.10
2023-01-18T02:32:53.180Z,22.20
2023-01-18T02:34:10.257Z,24.20
2023-01-18T02:35:25.741Z,22.40
2023-01-18T02:36:48.228Z,24.20
2023-01-18T02:38:06.037Z,23.00
2023-01-18T02:39:16.782Z,25.70
2023-01-18T02:40:44.121Z,24.20
2023-01-18T02:42:08.486Z,24.90
2023-01-18T02:43:32.665Z,22.50
2023-01-18T02:44:57.239Z,23.80
2023-01-18T02:46:19.349Z,20.80
2023-01-18T02:47:23.477Z,23.00
2023-01-18T02:48:29.580Z,21.60
2023-01-18T02:49:32.359Z,21.60
2023-01-18T02:50:35.054Z,21.82
2023-01-18T02:51:37.781Z,19.90
2023-01-18T02:52:45.010Z,24.73
2023-01-18T02:53:48.373Z,22.90
2023-01-18T02:54:51.269Z,23.20
2023-01-18T02:56:02.999Z,23.73
2023-01-18T02:57:09.155Z,22.00
2023-01-18T02:58:17.898Z,22.90
2023-01-18T02:59:23.688Z,21.30
2023-01-18T03:00:27.827Z,21.50
2023-01-18T03:01:33.920Z,25.40
2023-01-18T03:02:38.374Z,23.20
2023-01-18T03:03:44.051Z,19.50
2023-01-18T03:04:55.475Z,21.30
2023-01-18T03:06:01.131Z,21.60
2023-01-18T03:07:16.872Z,24.10
2023-01-18T03:08:28.553Z,9.00
2023-01-18T03:09:31.523Z,15.40
2023-01-18T03:10:37.561Z,22.40
2023-01-18T03:12:02.118Z,22.00
2023-01-18T03:13:17.152Z,23.20
2023-01-18T03:14:57.859Z,22.80
2023-01-18T03:16:23.042Z,23.40
2023-01-18T03:17:35.682Z,23.00
2023-01-18T03:18:43.292Z,25.10
2023-01-18T03:20:09.264Z,22.20
2023-01-18T03:21:11.858Z,19.90
2023-01-18T03:22:14.471Z,24.00
2023-01-18T03:23:40.575Z,23.50
2023-01-18T03:24:45.536Z,19.90
2023-01-18T03:25:54.317Z,25.90
2023-01-18T03:27:16.981Z,25.40
2023-01-18T03:28:57.963Z,23.30
2023-01-18T03:30:18.465Z,27.30
2023-01-18T03:32:07.068Z,25.70
2023-01-18T03:33:28.573Z,24.10
2023-01-18T03:34:40.227Z,23.50
2023-01-18T03:35:43.783Z,25.50
2023-01-18T03:36:48.913Z,23.10
2023-01-18T03:37:53.176Z,24.60
2023-01-18T03:39:04.965Z,25.10
2023-01-18T03:40:17.078Z,22.40
2023-01-18T03:41:20.957Z,23.50
2023-01-18T03:42:33.202Z,23.00
2023-01-18T03:43:37.187Z,23.60
2023-01-18T03:44:43.631Z,29.70
2023-01-18T03:45:48.784Z,25.80
2023-01-18T03:46:51.540Z,24.30
2023-01-18T03:47:54.169Z,25.10
2023-01-18T03:48:56.623Z,28.00
2023-01-18T03:49:58.839Z,27.70
2023-01-18T03:51:35.073Z,25.30
2023-01-18T03:52:42.375Z,24.10
2023-01-18T03:53:51.133Z,24.20
2023-01-18T03:54:56.943Z,25.40
2023-01-18T03:56:05.979Z,23.20
2023-01-18T03:58:36.049Z,20.60
2023-01-18T03:59:38.888Z,27.20
2023-01-18T04:00:41.555Z,26.70
2023-01-18T04:01:48.268Z,19.90
2023-01-18T04:02:50.851Z,24.40
2023-01-18T04:03:52.984Z,26.60
2023-01-18T04:04:56.989Z,23.80
2023-01-18T04:06:02.746Z,26.10
2023-01-18T04:07:04.783Z,23.60
2023-01-18T04:08:07.380Z,25.30
2023-01-18T04:09:11.277Z,27.60
2023-01-18T04:10:14.396Z,24.10
2023-01-18T04:11:17.107Z,26.40
2023-01-18T04:12:19.742Z,27.20
2023-01-18T04:13:22.482Z,29.00
2023-01-18T04:14:24.935Z,27.90
2023-01-18T04:15:27.348Z,26.30
2023-01-18T04:16:29.878Z,29.90
2023-01-18T04:17:32.249Z,27.80
2023-01-18T04:18:34.251Z,29.50
2023-01-18T04:19:36.358Z,26.90
2023-01-18T04:20:38.403Z,27.22
2023-01-18T04:21:40.528Z,27.50
2023-01-18T04:22:42.904Z,26.10
2023-01-18T04:23:44.911Z,24.20
2023-01-18T04:24:47.016Z,27.30
2023-01-18T04:25:50.752Z,27.00
2023-01-18T04:26:52.868Z,25.10
2023-01-18T04:27:55.077Z,24.40
2023-01-18T04:28:56.918Z,22.67
2023-01-18T04:29:59.810Z,25.00
2023-01-18T04:31:02.168Z,12.64
2023-01-18T04:32:05.713Z,26.10
2023-01-18T04:33:07.877Z,23.50
2023-01-18T04:34:10.072Z,26.80
2023-01-18T04:35:12.886Z,24.80
2023-01-18T04:36:15.364Z,27.00
2023-01-18T04:37:17.347Z,27.30
2023-01-18T04:38:20.495Z,29.44
2023-01-18T04:39:23.256Z,26.60
2023-01-18T04:40:25.236Z,24.90
2023-01-18T04:41:27.719Z,23.89
2023-01-18T04:42:30.512Z,26.90
2023-01-18T04:43:32.589Z,26.10
2023-01-18T04:44:34.646Z,23.78
2023-01-18T04:45:36.805Z,26.33
2023-01-18T04:46:39.436Z,24.20
2023-01-18T04:47:42.252Z,26.00
2023-01-18T04:48:44.308Z,21.80
2023-01-18T04:49:46.397Z,22.50
2023-01-18T04:50:48.850Z,25.90
2023-01-18T04:51:50.834Z,26.20
2023-01-18T04:52:52.691Z,27.44
2023-01-18T04:53:55.159Z,22.70
2023-01-18T04:54:57.421Z,27.50
2023-01-18T04:55:59.642Z,26.10
2023-01-18T04:57:01.943Z,27.44
2023-01-18T04:58:04.094Z,24.50
2023-01-18T04:59:08.180Z,20.80
2023-01-18T05:00:15.362Z,25.90
2023-01-18T05:01:19.495Z,29.40
2023-01-18T05:02:22.113Z,28.20
2023-01-18T05:03:24.446Z,28.70
2023-01-18T05:04:26.895Z,25.90
2023-01-18T05:05:29.082Z,28.30
2023-01-18T05:06:31.430Z,32.50
2023-01-18T05:07:33.771Z,28.40
2023-01-18T05:08:38.191Z,29.10
2023-01-18T05:09:40.696Z,29.50
2023-01-18T05:10:43.237Z,31.40
2023-01-18T05:11:45.491Z,30.10
2023-01-18T05:12:47.518Z,26.40
2023-01-18T05:13:49.565Z,29.78
2023-01-18T05:14:51.707Z,33.20
2023-01-18T05:15:54.144Z,33.33
2023-01-18T05:16:56.909Z,33.20
2023-01-18T05:17:58.951Z,31.70
2023-01-18T05:19:01.106Z,28.56
2023-01-18T05:20:07.291Z,29.70
2023-01-18T05:21:09.863Z,31.10
2023-01-18T05:22:12.591Z,34.20
2023-01-18T05:23:14.594Z,32.90
2023-01-18T05:24:17.225Z,35.11
2023-01-18T05:25:19.624Z,26.45
2023-01-18T05:26:23.555Z,32.80
2023-01-18T05:27:25.828Z,30.30
2023-01-18T05:28:27.928Z,31.80
2023-01-18T05:29:30.226Z,33.30
2023-01-18T05:30:33.021Z,34.50
2023-01-18T05:31:35.699Z,32.90
2023-01-18T05:32:38.406Z,30.00
2023-01-18T05:33:41.096Z,33.70
2023-01-18T05:34:43.514Z,29.50
2023-01-18T05:35:51.503Z,31.70
2023-01-18T05:36:53.772Z,33.00
2023-01-18T05:37:55.743Z,33.20
2023-01-18T05:38:57.702Z,25.11
2023-01-18T05:40:00.212Z,32.11
2023-01-18T05:41:02.397Z,32.80
2023-01-18T05:42:05.099Z,31.70
2023-01-18T05:43:07.371Z,32.36
2023-01-18T05:44:10.795Z,31.20
2023-01-18T05:45:14.342Z,31.60
2023-01-18T05:46:16.611Z,30.40
2023-01-18T05:47:18.908Z,31.30
2023-01-18T05:48:21.510Z,29.90
2023-01-18T05:49:23.944Z,9.40
2023-01-18T09:50:28.099Z,53.40
2023-01-18T09:51:58.270Z,50.30
2023-01-18T09:53:25.057Z,48.10
2023-01-18T09:54:43.363Z,43.60
2023-01-18T09:55:56.401Z,46.10
2023-01-18T09:57:17.540Z,38.60
2023-01-18T09:58:44.719Z,37.00
2023-01-18T09:59:53.720Z,32.80
2023-01-18T10:01:00.221Z,30.00
2023-01-18T10:02:06.343Z,29.70
2023-01-18T10:03:24.422Z,26.40
2023-01-18T10:04:35.050Z,31.50
2023-01-18T10:05:41.710Z,28.50
2023-01-18T10:06:47.632Z,26.80
2023-01-18T10:07:58.392Z,26.70
2023-01-18T10:09:04.684Z,27.30
2023-01-18T10:10:11.885Z,26.50
2023-01-18T10:11:20.544Z,20.20
2023-01-18T10:12:32.641Z,27.30
2023-01-18T10:13:51.377Z,25.20
2023-01-18T10:15:05.836Z,28.10
2023-01-18T10:16:12.703Z,28.10
2023-01-18T10:17:20.508Z,16.60
2023-01-18T10:18:23.575Z,23.30
2023-01-18T10:19:30.068Z,24.60
2023-01-18T10:20:36.509Z,22.50
2023-01-18T10:22:04.296Z,23.90
2023-01-18T10:23:16.561Z,24.60
2023-01-18T10:24:22.295Z,22.50
2023-01-18T10:25:45.325Z,22.50
2023-01-18T10:26:51.401Z,23.00
2023-01-18T10:28:13.427Z,22.50
2023-01-18T10:29:19.549Z,22.00
2023-01-18T10:30:39.801Z,18.30
2023-01-18T10:32:01.175Z,22.50
2023-01-18T10:33:16.004Z,20.60
2023-01-18T10:34:21.896Z,19.80
2023-01-18T10:35:36.053Z,22.10
2023-01-18T10:36:42.961Z,19.90
2023-01-18T10:37:46.027Z,15.20
2023-01-18T10:38:51.069Z,21.20
2023-01-18T10:39:57.401Z,18.70
2023-01-18T10:41:01.762Z,23.20
2023-01-18T10:42:07.637Z,18.70
2023-01-18T10:43:14.854Z,20.30
2023-01-18T10:44:17.818Z,23.80
2023-01-18T10:45:23.603Z,20.80
2023-01-18T10:46:26.246Z,22.50
2023-01-18T10:47:28.892Z,20.70
2023-01-18T10:48:33.486Z,21.00
2023-01-18T10:49:42.308Z,16.80
2023-01-18T10:50:53.122Z,16.40
2023-01-18T10:51:56.486Z,18.90
2023-01-18T10:53:11.269Z,17.60
2023-01-18T10:54:28.694Z,20.90
2023-01-18T10:55:30.927Z,18.30
2023-01-18T10:56:33.050Z,20.20
2023-01-18T10:57:38.774Z,21.30
2023-01-18T10:58:57.216Z,19.40
2023-01-18T10:59:59.566Z,15.60
2023-01-18T11:01:03.958Z,17.50
2023-01-18T11:02:10.405Z,16.30
2023-01-18T11:03:14.903Z,20.00
2023-01-18T11:04:21.120Z,18.40
2023-01-18T11:05:38.388Z,22.10
2023-01-18T11:06:49.874Z,17.90
2023-01-18T11:08:12.799Z,18.40
2023-01-18T11:09:36.239Z,13.50
2023-01-18T11:10:39.704Z,18.60
2023-01-18T11:12:00.173Z,18.90
2023-01-18T11:13:03.031Z,17.70
2023-01-18T11:14:09.399Z,18.64
2023-01-18T11:15:18.431Z,18.90
2023-01-18T11:16:23.508Z,18.90
2023-01-18T11:17:25.733Z,16.10
2023-01-18T11:18:28.775Z,12.00
2023-01-18T11:19:31.346Z,16.30
2023-01-18T11:20:40.684Z,19.60
2023-01-18T11:21:51.474Z,18.10
2023-01-18T11:24:16.256Z,13.40
2023-01-18T11:25:18.839Z,19.90
2023-01-18T11:26:23.010Z,19.20
2023-01-18T11:27:25.933Z,17.10
2023-01-18T11:28:39.271Z,16.90
2023-01-18T11:29:44.924Z,19.60
2023-01-18T11:31:12.909Z,18.20
2023-01-18T11:32:28.072Z,17.30
2023-01-18T11:33:30.508Z,17.10
2023-01-18T11:34:40.973Z,19.50
2023-01-18T11:35:45.264Z,14.70
2023-01-18T11:36:47.736Z,17.40
2023-01-18T11:37:49.919Z,16.20
2023-01-18T11:38:51.951Z,19.20
2023-01-18T11:39:54.146Z,16.90
2023-01-18T11:41:12.655Z,18.20
2023-01-18T11:42:25.169Z,17.20
2023-01-18T11:43:30.827Z,16.50
2023-01-18T11:44:36.836Z,17.60
2023-01-18T11:45:59.588Z,15.40
2023-01-18T11:47:05.840Z,17.70
2023-01-18T11:48:13.015Z,18.60
2023-01-18T11:49:36.518Z,14.00
2023-01-18T11:50:49.164Z,18.30
2023-01-18T11:52:03.396Z,17.10
2023-01-18T11:53:12.246Z,15.00
2023-01-18T11:54:22.143Z,15.50
2023-01-18T11:55:37.773Z,16.50
2023-01-18T11:56:47.063Z,18.40
2023-01-18T11:57:52.737Z,16.70
2023-01-18T11:58:56.204Z,16.70
2023-01-18T11:59:59.030Z,19.50
2023-01-18T12:01:38.191Z,17.73
2023-01-18T12:03:20.216Z,9.90
2023-01-18T12:04:45.057Z,15.60
2023-01-18T12:05:54.202Z,16.30
2023-01-18T12:07:19.589Z,15.10
2023-01-18T12:08:40.578Z,16.90
2023-01-18T12:10:04.160Z,14.40
2023-01-18T12:11:12.860Z,17.20
2023-01-18T12:12:24.365Z,13.60
2023-01-18T12:13:39.287Z,9.80
2023-01-18T12:14:51.281Z,16.70
2023-01-18T12:16:09.798Z,17.60
2023-01-18T12:17:15.658Z,15.00
2023-01-18T12:18:27.507Z,17.70
2023-01-18T12:19:33.423Z,17.00
2023-01-18T12:20:42.566Z,16.00
2023-01-18T12:21:54.510Z,12.80
2023-01-18T12:23:25.119Z,14.80
2023-01-18T12:24:46.270Z,10.50
2023-01-18T12:26:12.645Z,15.00
2023-01-18T12:27:18.400Z,16.40
2023-01-18T12:28:43.828Z,14.10
2023-01-18T12:30:15.670Z,15.70
2023-01-18T12:31:24.403Z,16.70
2023-01-18T12:32:44.767Z,8.70
2023-01-18T12:33:54.113Z,15.30
2023-01-18T12:35:33.445Z,17.00
2023-01-18T12:37:05.281Z,15.40
2023-01-18T12:38:27.699Z,16.30
2023-01-18T12:39:52.371Z,11.80
2023-01-18T12:41:13.537Z,14.90
2023-01-18T12:42:25.881Z,15.60
2023-01-18T12:43:53.375Z,17.80
2023-01-18T12:45:16.475Z,15.00
2023-01-18T12:46:28.520Z,14.00
2023-01-18T12:47:45.609Z,16.00
2023-01-18T12:48:57.179Z,15.70
2023-01-18T12:50:02.746Z,13.70
2023-01-18T12:51:09.776Z,15.30
2023-01-18T12:52:19.164Z,14.10
2023-01-18T12:53:31.596Z,14.30
2023-01-18T12:54:39.193Z,17.20
2023-01-18T12:55:45.103Z,16.10
2023-01-18T12:56:51.600Z,15.10
2023-01-18T12:57:59.949Z,16.70
2023-01-18T12:59:05.910Z,14.60
2023-01-18T13:00:17.468Z,15.30
2023-01-18T13:01:22.318Z,15.90
2023-01-18T13:02:41.256Z,17.60
2023-01-18T13:03:46.385Z,16.30
2023-01-18T13:04:57.947Z,14.60
2023-01-18T13:06:03.216Z,16.70
2023-01-18T13:07:09.197Z,17.20
2023-01-18T13:08:15.090Z,16.40
2023-01-18T13:09:22.877Z,17.40
2023-01-18T13:10:27.997Z,16.50
2023-01-18T13:11:40.954Z,17.10
2023-01-18T13:12:44.274Z,18.60
2023-01-18T13:13:50.521Z,18.50
2023-01-18T13:15:08.676Z,14.20
2023-01-18T13:16:38.753Z,17.10
2023-01-18T13:17:48.162Z,15.90
2023-01-18T13:19:08.947Z,14.30
2023-01-18T13:20:17.817Z,16.30
2023-01-18T13:21:29.941Z,16.50
2023-01-18T13:22:41.525Z,17.40
2023-01-18T13:24:06.374Z,15.30
2023-01-18T13:25:23.530Z,14.80
2023-01-18T13:26:34.258Z,12.70
2023-01-18T13:29:14.395Z,16.90
2023-01-18T13:30:18.821Z,11.80
2023-01-18T13:31:24.842Z,15.90
2023-01-18T13:32:38.525Z,14.70
2023-01-18T13:33:47.181Z,17.00
2023-01-18T13:35:20.128Z,18.10
2023-01-18T13:36:16.886Z,14.90
2023-01-18T13:37:45.602Z,17.10
2023-01-18T13:39:03.048Z,13.90
2023-01-18T13:40:06.710Z,17.70
2023-01-18T13:41:12.596Z,18.30
2023-01-18T13:42:25.123Z,14.30
2023-01-18T13:43:37.473Z,17.30
2023-01-18T13:44:43.002Z,14.70
2023-01-18T13:47:31.679Z,11.90
2023-01-18T13:48:49.558Z,14.90
2023-01-18T19:44:21.673Z,15.40
2023-01-18T19:45:28.891Z,19.40
2023-01-18T19:46:30.659Z,21.80
2023-01-18T19:47:34.237Z,24.90
2023-01-18T19:48:38.858Z,22.20
2023-01-18T19:49:42.626Z,16.60
2023-01-18T19:50:45.600Z,16.80
2023-01-18T19:51:48.159Z,18.60
2023-01-18T19:52:50.884Z,17.20
2023-01-18T19:53:54.626Z,13.90
2023-01-18T19:55:01.674Z,17.20
2023-01-18T19:56:07.592Z,17.40
2023-01-18T19:57:08.731Z,15.10
2023-01-18T19:58:11.246Z,15.30
2023-01-18T19:59:14.643Z,14.70
2023-01-18T20:00:18.596Z,14.40
2023-01-18T20:01:35.383Z,14.80
2023-01-18T20:02:26.869Z,15.50
2023-01-18T20:03:29.591Z,16.10
2023-01-18T20:04:33.467Z,13.90
2023-01-18T20:05:35.673Z,13.80
